Terminal Aerodrome Forecast
Issued by NWS

Home | Current Version | Previous Version | Text Only | Print | Product List | Glossary On
Versions: 1 2 3 4 5 6 7 8 9 10 11 12
000
FTUS46 KSGX 201737
TAFSNA
TAF
KSNA 201737Z 2018/2118 25008KT P6SM BKN030
     FM202000 25012G20KT P6SM SCT030
     FM210300 VRB04KT P6SM SCT030
     FM211300 VRB04KT P6SM SKC WS020/06020KT=

USA.gov is the U.S. government's official web portal to all federal, state and local government web resources and services.